Terminal Aerodrome Forecast
Issued by NWS Albany, NY

Home | Current Version | Previous Version | Text Only | Print | Product List | Glossary On
Versions: 1 2 3 4 5 6 7 8 9
000
FTUS41 KALY 281100
TAFPOU
TAF
KPOU 281121Z 2812/2912 VRB02KT P6SM -SHRA OVC060
      TEMPO 2812/2815 5SM -SHRA BR OVC030
     FM281600 27008KT P6SM VCSH OVC040
     FM281900 29008KT P6SM OVC045
     FM282300 31004KT P6SM SCT050 OVC150
     FM290600 VRB02KT P6SM SCT150=

USA.gov is the U.S. government's official web portal to all federal, state and local government web resources and services.